CMA CGM Marseille — 2IJJ2 — position and weather

sailwx.info

Track history (hours):
 
Tides and Currents Weather Stations Pressure Air Temp Water Temp Dewpoint Dewpoint Depression Visibility Wind Speed Wind Dir Waves Ship Positions

CMA CGM Marseille

Last reported at 2018-Jul-16 00:29 UTC. Time now 2018-Jul-16 00:50 UTC.
Position N 51°54' E 004°26'.

Length 190 m; draft 9.6 m.

Type: Ship (hazmat cat A). MMSI: 235110247.

Date/timePositionNaut miles runAvg speedWind from/ knotsBaromVisibWave heightAir tempDewpointWater temp
2018-Jul-16 00:29N 51°54' E 004°26'0 0.0
2018-Jul-15 23:59N 51°54' E 004°26'0 0.0
2018-Jul-15 23:29N 51°54' E 004°26'0 0.0
2018-Jul-15 22:59N 51°54' E 004°26'0 0.0
2018-Jul-15 22:29N 51°54' E 004°26'0 0.0
2018-Jul-15 21:59N 51°54' E 004°26'0 0.0
2018-Jul-15 21:29N 51°54' E 004°26'0 0.0
2018-Jul-15 20:59N 51°54' E 004°26'0 0.0
2018-Jul-15 20:29N 51°54' E 004°26'0 0.0
2018-Jul-15 19:59N 51°54' E 004°26'0 0.0
2018-Jul-15 19:29N 51°54' E 004°26'0 0.0
2018-Jul-15 18:59N 51°54' E 004°26'0 0.0
2018-Jul-15 18:29N 51°54' E 004°26'0 0.0
2018-Jul-15 17:59N 51°54' E 004°26'0 0.0
2018-Jul-15 17:29N 51°54' E 004°26'0 0.0
2018-Jul-15 16:59N 51°54' E 004°26'0 0.0
2018-Jul-15 16:29N 51°54' E 004°26'0 0.0
2018-Jul-15 15:59N 51°54' E 004°26'0 0.0
2018-Jul-15 15:26N 51°54' E 004°26'0 0.0
2018-Jul-15 14:59N 51°54' E 004°26'0 0.0
2018-Jul-15 14:29N 51°54' E 004°26'0 0.0
2018-Jul-15 13:59N 51°54' E 004°26'0 0.0
2018-Jul-15 13:29N 51°54' E 004°26'0 0.0
2018-Jul-15 12:59N 51°54' E 004°26'0 0.0
2018-Jul-15 12:29N 51°54' E 004°26'0 0.0
2018-Jul-15 11:59N 51°54' E 004°26'0 0.0
2018-Jul-15 11:29N 51°54' E 004°26'0 0.0
2018-Jul-15 10:59N 51°54' E 004°26'0 0.0
2018-Jul-15 10:29N 51°54' E 004°26'0 0.0
2018-Jul-15 09:59N 51°54' E 004°26'0 0.0
2018-Jul-15 09:29N 51°54' E 004°26'0 0.0
2018-Jul-15 08:59N 51°54' E 004°26'0 0.1
2018-Jul-15 08:30N 51°54' E 004°26'1 2.1
2018-Jul-15 08:00N 51°54' E 004°25'4 7.6
2018-Jul-15 07:30N 51°54' E 004°18'4 8.8
2018-Jul-15 07:00N 51°56' E 004°12'5 9.9
2018-Jul-15 06:30N 51°59' E 004°06'611.9
2018-Jul-15 06:00N 52°00' E 003°56'510.7
2018-Jul-15 05:30N 52°00' E 003°48'714.5
2018-Jul-15 05:00N 51°58' E 003°36'917.3
2018-Jul-15 04:30N 51°56' E 003°23'918.2
2018-Jul-15 04:00N 51°53' E 003°09'918.7
2018-Jul-15 03:30N 51°50' E 002°54'918.2
2018-Jul-15 03:00N 51°49' E 002°40'917.9
2018-Jul-15 02:30N 51°51' E 002°26'917.5
2018-Jul-15 02:00N 51°52' E 002°12'918.0
2018-Jul-15 01:30N 51°50' E 001°58'816.5
2018-Jul-15 01:00N 51°49' E 001°45'611.7
2018-Jul-15 00:31N 51°52' E 001°36'510.4
2018-Jul-15 00:00N 51°47' E 001°32'815.3
2018-Jul-14 23:30N 51°41' E 001°26'714.5
2018-Jul-14 23:00N 51°36' E 001°17'714.0
2018-Jul-14 22:30N 51°32' E 001°08'714.3
2018-Jul-14 22:00N 51°29' E 000°57'714.0
2018-Jul-14 21:30N 51°29' E 000°46'713.7
2018-Jul-14 21:00N 51°30' E 000°35'3 6.9
2018-Jul-14 20:30N 51°30' E 000°30'0 0.0
2018-Jul-14 20:00N 51°30' E 000°30'0 0.0
2018-Jul-14 19:30N 51°30' E 000°30'0 0.0
2018-Jul-14 18:59N 51°30' E 000°30'0 0.0
2018-Jul-14 18:28N 51°30' E 000°30'0 0.0
2018-Jul-14 18:00N 51°30' E 000°30'0 0.0
2018-Jul-14 17:29N 51°30' E 000°30'0 0.0
2018-Jul-14 17:00N 51°30' E 000°30'0 0.0
2018-Jul-14 16:29N 51°30' E 000°30'0 0.0
2018-Jul-14 16:01N 51°30' E 000°30'0 0.0
2018-Jul-14 15:29N 51°30' E 000°30'0 0.0
2018-Jul-14 15:01N 51°30' E 000°30'0 0.0
2018-Jul-14 14:30N 51°30' E 000°30'0 0.0
2018-Jul-14 13:31N 51°30' E 000°30'0 0.0
2018-Jul-14 13:01N 51°30' E 000°30'0 0.0
2018-Jul-14 12:31N 51°30' E 000°30'0 0.1
2018-Jul-14 12:01N 51°30' E 000°30'3 5.9
2018-Jul-14 11:30N 51°30' E 000°34'713.9
2018-Jul-14 11:00N 51°29' E 000°46'714.8
2018-Jul-14 10:30N 51°29' E 000°57'815.3
2018-Jul-14 10:00N 51°33' E 001°08'715.0
2018-Jul-14 09:30N 51°37' E 001°18'815.3
2018-Jul-14 09:00N 51°42' E 001°27'815.3
2018-Jul-14 08:30N 51°48' E 001°35'510.8
2018-Jul-14 08:01N 51°51' E 001°42'4 8.5
2018-Jul-14 07:31N 51°49' E 001°48'611.1
2018-Jul-14 07:01N 51°44' E 001°49'612.3
2018-Jul-14 06:30N 51°38' E 001°50'612.9
2018-Jul-14 06:01N 51°31' E 001°49'714.7
2018-Jul-14 05:30N 51°24' E 001°46'815.6
2018-Jul-14 05:01N 51°17' E 001°42'815.8
2018-Jul-14 04:30N 51°09' E 001°42'816.2
2018-Jul-14 04:00N 51°02' E 001°35'917.6
2018-Jul-14 03:30N 50°55' E 001°27'918.8
2018-Jul-14 03:00N 50°46' E 001°23'917.9
2018-Jul-14 02:30N 50°40' E 001°13'918.0
2018-Jul-14 02:00N 50°34' E 001°02'917.4
2018-Jul-14 01:31N 50°30' E 000°50'917.6
2018-Jul-14 01:00N 50°28' E 000°36'917.5
2018-Jul-14 00:30N 50°26' E 000°23'917.8
2018-Jul-14 00:00N 50°23' E 000°10'918.2
2018-Jul-13 23:30N 50°21' W 000°04'918.7
2018-Jul-13 23:01N 50°18' W 000°18'1019.5
2018-Jul-13 22:30N 50°15' W 000°33'1020.3
2018-Jul-13 22:00N 50°12' W 000°48'1221.1
2018-Jul-13 21:26N 50°09' W 001°06'921.7
2018-Jul-13 21:01N 50°06' W 001°20'1222.1
2018-Jul-13 20:29N 50°03' W 001°37'1122.4
2018-Jul-13 20:00N 50°01' W 001°53'1122.4
2018-Jul-13 19:30N 49°58' W 002°10'1121.6
2018-Jul-13 19:00N 49°56' W 002°27'1020.8
2018-Jul-13 18:31N 49°52' W 002°42'1020.3
2018-Jul-13 18:00N 49°48' W 002°57'1019.7
2018-Jul-13 17:30N 49°44' W 003°10'1019.5
2018-Jul-13 16:58N 49°39' W 003°24'919.5
2018-Jul-13 16:30N 49°34' W 003°37'1019.5
2018-Jul-13 15:58N 49°29' W 003°50'4919.0
2018-Jul-13 13:22N 49°03' W 004°54'818.4
2018-Jul-13 12:57N 48°59' W 005°05'917.9
2018-Jul-13 12:27N 48°54' W 005°17'817.4
2018-Jul-13 12:00N 48°50' W 005°27'917.5
2018-Jul-13 11:31N 48°46' W 005°38'1416.7
2018-Jul-13 10:40N 48°33' W 005°47'314.5
2018-Jul-13 10:26N 48°30' W 005°50'712.9
2018-Jul-13 09:53N 48°24' W 005°55'1516.5
2018-Jul-13 08:58N 48°10' W 006°05'1016.7
2018-Jul-13 08:21N 48°01' W 006°12'616.4
2018-Jul-13 07:58N 47°56' W 006°17'1716.8
2018-Jul-13 06:58N 47°41' W 006°28'3011.9
2018-Jul-13 04:26N 47°14' W 006°49'817.8
2018-Jul-13 04:00N 47°07' W 006°54'48517.0
2018-Jul-11 23:26N 39°20' W 009°51'716.8
2018-Jul-11 23:00N 39°13' W 009°52'816.7
2018-Jul-11 22:30N 39°04' W 009°52'816.6
2018-Jul-11 22:00N 38°56' W 009°52'916.9
2018-Jul-11 21:30N 38°47' W 009°52'817.3
2018-Jul-11 21:00N 38°39' W 009°49'816.9
2018-Jul-11 20:30N 38°31' W 009°46'917.1
2018-Jul-11 20:00N 38°23' W 009°44'917.2
2018-Jul-11 19:30N 38°14' W 009°41'816.9
2018-Jul-11 19:00N 38°06' W 009°39'917.1
2018-Jul-11 18:30N 37°58' W 009°36'817.0
2018-Jul-11 18:01N 37°50' W 009°34'917.0
2018-Jul-11 17:31N 37°41' W 009°32'1217.2
2018-Jul-11 16:50N 37°30' W 009°30'617.6
2018-Jul-11 16:30N 37°24' W 009°29'1017.5
2018-Jul-11 15:56N 37°14' W 009°26'817.7
2018-Jul-11 15:30N 37°07' W 009°24'917.5
2018-Jul-11 15:00N 36°59' W 009°21'917.7
2018-Jul-11 14:30N 36°51' W 009°16'1018.1
2018-Jul-11 13:57N 36°44' W 009°07'818.2
2018-Jul-11 13:30N 36°42' W 008°57'1017.9
2018-Jul-11 12:58N 36°39' W 008°46'15117.4
2018-Jul-11 04:17N 35°57' W 005°45'414.8
2018-Jul-11 04:00N 35°57' W 005°40'714.7
2018-Jul-11 03:30N 35°59' W 005°31'713.8
2018-Jul-11 03:00N 36°02' W 005°24'4 8.5
2018-Jul-11 02:30N 36°07' W 005°25'1 2.7
2018-Jul-11 01:59N 36°08' W 005°25'0 0.0
2018-Jul-11 01:29N 36°08' W 005°25'0 0.0
2018-Jul-11 00:59N 36°08' W 005°25'0 0.0
2018-Jul-11 00:29N 36°08' W 005°25'0 0.0
2018-Jul-10 23:59N 36°08' W 005°25'0 0.0
2018-Jul-10 23:23N 36°08' W 005°25'0 0.0
2018-Jul-10 22:59N 36°08' W 005°25'0 0.0
2018-Jul-10 22:29N 36°08' W 005°25'0 0.0
2018-Jul-10 21:53N 36°08' W 005°25'0 0.0
2018-Jul-10 21:29N 36°08' W 005°25'0 0.0
2018-Jul-10 20:59N 36°08' W 005°25'0 0.0
2018-Jul-10 20:29N 36°08' W 005°25'0 0.0
2018-Jul-10 19:59N 36°08' W 005°25'0 0.0
2018-Jul-10 19:29N 36°08' W 005°25'0 0.0
2018-Jul-10 18:53N 36°08' W 005°25'0 0.0
2018-Jul-10 18:29N 36°08' W 005°25'0 0.0
2018-Jul-10 17:53N 36°08' W 005°25'0 0.0
2018-Jul-10 17:29N 36°08' W 005°25'0 0.0
2018-Jul-10 16:59N 36°08' W 005°25'0 0.0
2018-Jul-10 16:29N 36°08' W 005°25'0 0.0
2018-Jul-10 15:53N 36°08' W 005°25'0 0.0
2018-Jul-10 15:23N 36°08' W 005°25'0 0.0
2018-Jul-10 14:59N 36°08' W 005°25'0 0.0
2018-Jul-10 14:29N 36°08' W 005°25'0 0.0
2018-Jul-10 13:59N 36°08' W 005°25'0 0.0
2018-Jul-10 13:29N 36°08' W 005°25'2 2.5
2018-Jul-10 12:52N 36°08' W 005°23'410.0
2018-Jul-10 12:29N 36°04' W 005°21'5 9.5
2018-Jul-10 12:00N 36°04' W 005°16'1 2.0
2018-Jul-10 11:30N 36°04' W 005°17'1 2.9
2018-Jul-10 11:00N 36°04' W 005°19'0 0.9
2018-Jul-10 10:30N 36°04' W 005°18'1 1.6
2018-Jul-10 10:00N 36°03' W 005°19'1 2.0
2018-Jul-10 09:30N 36°04' W 005°18'1 1.9
2018-Jul-10 09:00N 36°04' W 005°19'1 1.4
2018-Jul-10 08:30N 36°03' W 005°18'4 7.3
2018-Jul-10 08:00N 35°60' W 005°18'713.4
2018-Jul-10 07:30N 35°58' W 005°26'2012.1
2018-Jul-10 05:49N 35°54' W 005°51'412.4
2018-Jul-10 05:29N 35°54' W 005°56'812.7
2018-Jul-10 04:53N 35°54' W 006°06'12212.3
2018-Jul-09 18:58N 34°34' W 007°59'2012.2
2018-Jul-09 17:18N 34°20' W 008°17'412.1
2018-Jul-09 16:59N 34°17' W 008°21'812.7
2018-Jul-09 16:19N 34°12' W 008°28'26616.5
2018-Jul-09 00:11N 31°12' W 012°22'1217.0
2018-Jul-08 23:29N 31°04' W 012°32'817.1
2018-Jul-08 23:00N 30°59' W 012°39'917.2
2018-Jul-08 22:30N 30°53' W 012°46'4217.4
2018-Jul-08 20:05N 30°24' W 013°23'117.6
2018-Jul-08 20:00N 30°24' W 013°24'917.5
2018-Jul-08 19:30N 30°18' W 013°31'1217.5
2018-Jul-08 18:51N 30°10' W 013°41'917.4
2018-Jul-08 18:19N 30°04' W 013°49'617.5
2018-Jul-08 18:00N 29°60' W 013°54'917.6
2018-Jul-08 17:30N 29°54' W 014°01'917.7
2018-Jul-08 17:00N 29°48' W 014°09'917.9
2018-Jul-08 16:30N 29°42' W 014°16'917.9
2018-Jul-08 16:00N 29°36' W 014°24'917.6
2018-Jul-08 15:30N 29°30' W 014°31'917.5
2018-Jul-08 15:00N 29°24' W 014°39'917.7
2018-Jul-08 14:30N 29°18' W 014°46'917.5
2018-Jul-08 14:00N 29°12' W 014°54'917.5
2018-Jul-08 13:30N 29°06' W 015°01'917.5
2018-Jul-08 12:59N 28°60' W 015°09'917.6
2018-Jul-08 12:27N 28°54' W 015°16'1017.9
2018-Jul-08 11:53N 28°47' W 015°25'718.0
2018-Jul-08 11:30N 28°42' W 015°31'917.8
2018-Jul-08 11:00N 28°36' W 015°38'917.7
2018-Jul-08 10:30N 28°30' W 015°45'917.9
2018-Jul-08 10:00N 28°23' W 015°52'1017.7
2018-Jul-08 09:28N 28°16' W 015°59'817.6
2018-Jul-08 08:59N 28°09' W 016°05'1017.1
2018-Jul-08 08:26N 28°02' W 016°12'1617.0
2018-Jul-08 07:31N 27°50' W 016°23'716.5
2018-Jul-08 07:05N 27°44' W 016°28'316.4
2018-Jul-08 06:54N 27°42' W 016°30'3416.4
2018-Jul-08 04:50N 27°16' W 016°55'  
Track history (hours):
 
Tides and Currents Weather Stations Pressure Air Temp Water Temp Dewpoint Dewpoint Depression Visibility Wind Speed Wind Dir Waves Ship Positions

CMA CGM Marseille

Last reported at 2018-Jul-16 00:29 UTC. Time now 2018-Jul-16 00:50 UTC.
Position N 51°54' E 004°26'.

Length 190 m; draft 9.6 m.

Type: Ship (hazmat cat A). MMSI: 235110247.

Date/timePositionNaut miles runAvg speedWind from/ knotsBaromVisibWave heightAir tempDewpointWater temp
2018-Jul-16 00:29N 51°54' E 004°26'0 0.0
2018-Jul-15 23:59N 51°54' E 004°26'0 0.0
2018-Jul-15 23:29N 51°54' E 004°26'0 0.0
2018-Jul-15 22:59N 51°54' E 004°26'0 0.0
2018-Jul-15 22:29N 51°54' E 004°26'0 0.0
2018-Jul-15 21:59N 51°54' E 004°26'0 0.0
2018-Jul-15 21:29N 51°54' E 004°26'0 0.0
2018-Jul-15 20:59N 51°54' E 004°26'0 0.0
2018-Jul-15 20:29N 51°54' E 004°26'0 0.0
2018-Jul-15 19:59N 51°54' E 004°26'0 0.0
2018-Jul-15 19:29N 51°54' E 004°26'0 0.0
2018-Jul-15 18:59N 51°54' E 004°26'0 0.0
2018-Jul-15 18:29N 51°54' E 004°26'0 0.0
2018-Jul-15 17:59N 51°54' E 004°26'0 0.0
2018-Jul-15 17:29N 51°54' E 004°26'0 0.0
2018-Jul-15 16:59N 51°54' E 004°26'0 0.0
2018-Jul-15 16:29N 51°54' E 004°26'0 0.0
2018-Jul-15 15:59N 51°54' E 004°26'0 0.0
2018-Jul-15 15:26N 51°54' E 004°26'0 0.0
2018-Jul-15 14:59N 51°54' E 004°26'0 0.0
2018-Jul-15 14:29N 51°54' E 004°26'0 0.0
2018-Jul-15 13:59N 51°54' E 004°26'0 0.0
2018-Jul-15 13:29N 51°54' E 004°26'0 0.0
2018-Jul-15 12:59N 51°54' E 004°26'0 0.0
2018-Jul-15 12:29N 51°54' E 004°26'0 0.0
2018-Jul-15 11:59N 51°54' E 004°26'0 0.0
2018-Jul-15 11:29N 51°54' E 004°26'0 0.0
2018-Jul-15 10:59N 51°54' E 004°26'0 0.0
2018-Jul-15 10:29N 51°54' E 004°26'0 0.0
2018-Jul-15 09:59N 51°54' E 004°26'0 0.0
2018-Jul-15 09:29N 51°54' E 004°26'0 0.0
2018-Jul-15 08:59N 51°54' E 004°26'0 0.1
2018-Jul-15 08:30N 51°54' E 004°26'1 2.1
2018-Jul-15 08:00N 51°54' E 004°25'4 7.6
2018-Jul-15 07:30N 51°54' E 004°18'4 8.8
2018-Jul-15 07:00N 51°56' E 004°12'5 9.9
2018-Jul-15 06:30N 51°59' E 004°06'611.9
2018-Jul-15 06:00N 52°00' E 003°56'510.7
2018-Jul-15 05:30N 52°00' E 003°48'714.5
2018-Jul-15 05:00N 51°58' E 003°36'917.3
2018-Jul-15 04:30N 51°56' E 003°23'918.2
2018-Jul-15 04:00N 51°53' E 003°09'918.7
2018-Jul-15 03:30N 51°50' E 002°54'918.2
2018-Jul-15 03:00N 51°49' E 002°40'917.9
2018-Jul-15 02:30N 51°51' E 002°26'917.5
2018-Jul-15 02:00N 51°52' E 002°12'918.0
2018-Jul-15 01:30N 51°50' E 001°58'816.5
2018-Jul-15 01:00N 51°49' E 001°45'611.7
2018-Jul-15 00:31N 51°52' E 001°36'510.4
2018-Jul-15 00:00N 51°47' E 001°32'815.3
2018-Jul-14 23:30N 51°41' E 001°26'714.5
2018-Jul-14 23:00N 51°36' E 001°17'714.0
2018-Jul-14 22:30N 51°32' E 001°08'714.3
2018-Jul-14 22:00N 51°29' E 000°57'714.0
2018-Jul-14 21:30N 51°29' E 000°46'713.7
2018-Jul-14 21:00N 51°30' E 000°35'3 6.9
2018-Jul-14 20:30N 51°30' E 000°30'0 0.0
2018-Jul-14 20:00N 51°30' E 000°30'0 0.0
2018-Jul-14 19:30N 51°30' E 000°30'0 0.0
2018-Jul-14 18:59N 51°30' E 000°30'0 0.0
2018-Jul-14 18:28N 51°30' E 000°30'0 0.0
2018-Jul-14 18:00N 51°30' E 000°30'0 0.0
2018-Jul-14 17:29N 51°30' E 000°30'0 0.0
2018-Jul-14 17:00N 51°30' E 000°30'0 0.0
2018-Jul-14 16:29N 51°30' E 000°30'0 0.0
2018-Jul-14 16:01N 51°30' E 000°30'0 0.0
2018-Jul-14 15:29N 51°30' E 000°30'0 0.0
2018-Jul-14 15:01N 51°30' E 000°30'0 0.0
2018-Jul-14 14:30N 51°30' E 000°30'0 0.0
2018-Jul-14 13:31N 51°30' E 000°30'0 0.0
2018-Jul-14 13:01N 51°30' E 000°30'0 0.0
2018-Jul-14 12:31N 51°30' E 000°30'0 0.1
2018-Jul-14 12:01N 51°30' E 000°30'3 5.9
2018-Jul-14 11:30N 51°30' E 000°34'713.9
2018-Jul-14 11:00N 51°29' E 000°46'714.8
2018-Jul-14 10:30N 51°29' E 000°57'815.3
2018-Jul-14 10:00N 51°33' E 001°08'715.0
2018-Jul-14 09:30N 51°37' E 001°18'815.3
2018-Jul-14 09:00N 51°42' E 001°27'815.3
2018-Jul-14 08:30N 51°48' E 001°35'510.8
2018-Jul-14 08:01N 51°51' E 001°42'4 8.5
2018-Jul-14 07:31N 51°49' E 001°48'611.1
2018-Jul-14 07:01N 51°44' E 001°49'612.3
2018-Jul-14 06:30N 51°38' E 001°50'612.9
2018-Jul-14 06:01N 51°31' E 001°49'714.7
2018-Jul-14 05:30N 51°24' E 001°46'815.6
2018-Jul-14 05:01N 51°17' E 001°42'815.8
2018-Jul-14 04:30N 51°09' E 001°42'816.2
2018-Jul-14 04:00N 51°02' E 001°35'917.6
2018-Jul-14 03:30N 50°55' E 001°27'918.8
2018-Jul-14 03:00N 50°46' E 001°23'917.9
2018-Jul-14 02:30N 50°40' E 001°13'918.0
2018-Jul-14 02:00N 50°34' E 001°02'917.4
2018-Jul-14 01:31N 50°30' E 000°50'917.6
2018-Jul-14 01:00N 50°28' E 000°36'917.5
2018-Jul-14 00:30N 50°26' E 000°23'917.8
2018-Jul-14 00:00N 50°23' E 000°10'918.2
2018-Jul-13 23:30N 50°21' W 000°04'918.7
2018-Jul-13 23:01N 50°18' W 000°18'1019.5
2018-Jul-13 22:30N 50°15' W 000°33'1020.3
2018-Jul-13 22:00N 50°12' W 000°48'1221.1
2018-Jul-13 21:26N 50°09' W 001°06'921.7
2018-Jul-13 21:01N 50°06' W 001°20'1222.1
2018-Jul-13 20:29N 50°03' W 001°37'1122.4
2018-Jul-13 20:00N 50°01' W 001°53'1122.4
2018-Jul-13 19:30N 49°58' W 002°10'1121.6
2018-Jul-13 19:00N 49°56' W 002°27'1020.8
2018-Jul-13 18:31N 49°52' W 002°42'1020.3
2018-Jul-13 18:00N 49°48' W 002°57'1019.7
2018-Jul-13 17:30N 49°44' W 003°10'1019.5
2018-Jul-13 16:58N 49°39' W 003°24'919.5
2018-Jul-13 16:30N 49°34' W 003°37'1019.5
2018-Jul-13 15:58N 49°29' W 003°50'4919.0
2018-Jul-13 13:22N 49°03' W 004°54'818.4
2018-Jul-13 12:57N 48°59' W 005°05'917.9
2018-Jul-13 12:27N 48°54' W 005°17'817.4
2018-Jul-13 12:00N 48°50' W 005°27'917.5
2018-Jul-13 11:31N 48°46' W 005°38'1416.7
2018-Jul-13 10:40N 48°33' W 005°47'314.5
2018-Jul-13 10:26N 48°30' W 005°50'712.9
2018-Jul-13 09:53N 48°24' W 005°55'1516.5
2018-Jul-13 08:58N 48°10' W 006°05'1016.7
2018-Jul-13 08:21N 48°01' W 006°12'616.4
2018-Jul-13 07:58N 47°56' W 006°17'1716.8
2018-Jul-13 06:58N 47°41' W 006°28'3011.9
2018-Jul-13 04:26N 47°14' W 006°49'817.8
2018-Jul-13 04:00N 47°07' W 006°54'48517.0
2018-Jul-11 23:26N 39°20' W 009°51'716.8
2018-Jul-11 23:00N 39°13' W 009°52'816.7
2018-Jul-11 22:30N 39°04' W 009°52'816.6
2018-Jul-11 22:00N 38°56' W 009°52'916.9
2018-Jul-11 21:30N 38°47' W 009°52'817.3
2018-Jul-11 21:00N 38°39' W 009°49'816.9
2018-Jul-11 20:30N 38°31' W 009°46'917.1
2018-Jul-11 20:00N 38°23' W 009°44'917.2
2018-Jul-11 19:30N 38°14' W 009°41'816.9
2018-Jul-11 19:00N 38°06' W 009°39'917.1
2018-Jul-11 18:30N 37°58' W 009°36'817.0
2018-Jul-11 18:01N 37°50' W 009°34'917.0
2018-Jul-11 17:31N 37°41' W 009°32'1217.2
2018-Jul-11 16:50N 37°30' W 009°30'617.6
2018-Jul-11 16:30N 37°24' W 009°29'1017.5
2018-Jul-11 15:56N 37°14' W 009°26'817.7
2018-Jul-11 15:30N 37°07' W 009°24'917.5
2018-Jul-11 15:00N 36°59' W 009°21'917.7
2018-Jul-11 14:30N 36°51' W 009°16'1018.1
2018-Jul-11 13:57N 36°44' W 009°07'818.2
2018-Jul-11 13:30N 36°42' W 008°57'1017.9
2018-Jul-11 12:58N 36°39' W 008°46'15117.4
2018-Jul-11 04:17N 35°57' W 005°45'414.8
2018-Jul-11 04:00N 35°57' W 005°40'714.7
2018-Jul-11 03:30N 35°59' W 005°31'713.8
2018-Jul-11 03:00N 36°02' W 005°24'4 8.5
2018-Jul-11 02:30N 36°07' W 005°25'1 2.7
2018-Jul-11 01:59N 36°08' W 005°25'0 0.0
2018-Jul-11 01:29N 36°08' W 005°25'0 0.0
2018-Jul-11 00:59N 36°08' W 005°25'0 0.0
2018-Jul-11 00:29N 36°08' W 005°25'0 0.0
2018-Jul-10 23:59N 36°08' W 005°25'0 0.0
2018-Jul-10 23:23N 36°08' W 005°25'0 0.0
2018-Jul-10 22:59N 36°08' W 005°25'0 0.0
2018-Jul-10 22:29N 36°08' W 005°25'0 0.0
2018-Jul-10 21:53N 36°08' W 005°25'0 0.0
2018-Jul-10 21:29N 36°08' W 005°25'0 0.0
2018-Jul-10 20:59N 36°08' W 005°25'0 0.0
2018-Jul-10 20:29N 36°08' W 005°25'0 0.0
2018-Jul-10 19:59N 36°08' W 005°25'0 0.0
2018-Jul-10 19:29N 36°08' W 005°25'0 0.0
2018-Jul-10 18:53N 36°08' W 005°25'0 0.0
2018-Jul-10 18:29N 36°08' W 005°25'0 0.0
2018-Jul-10 17:53N 36°08' W 005°25'0 0.0
2018-Jul-10 17:29N 36°08' W 005°25'0 0.0
2018-Jul-10 16:59N 36°08' W 005°25'0 0.0
2018-Jul-10 16:29N 36°08' W 005°25'0 0.0
2018-Jul-10 15:53N 36°08' W 005°25'0 0.0
2018-Jul-10 15:23N 36°08' W 005°25'0 0.0
2018-Jul-10 14:59N 36°08' W 005°25'0 0.0
2018-Jul-10 14:29N 36°08' W 005°25'0 0.0
2018-Jul-10 13:59N 36°08' W 005°25'0 0.0
2018-Jul-10 13:29N 36°08' W 005°25'2 2.5
2018-Jul-10 12:52N 36°08' W 005°23'410.0
2018-Jul-10 12:29N 36°04' W 005°21'5 9.5
2018-Jul-10 12:00N 36°04' W 005°16'1 2.0
2018-Jul-10 11:30N 36°04' W 005°17'1 2.9
2018-Jul-10 11:00N 36°04' W 005°19'0 0.9
2018-Jul-10 10:30N 36°04' W 005°18'1 1.6
2018-Jul-10 10:00N 36°03' W 005°19'1 2.0
2018-Jul-10 09:30N 36°04' W 005°18'1 1.9
2018-Jul-10 09:00N 36°04' W 005°19'1 1.4
2018-Jul-10 08:30N 36°03' W 005°18'4 7.3
2018-Jul-10 08:00N 35°60' W 005°18'713.4
2018-Jul-10 07:30N 35°58' W 005°26'2012.1
2018-Jul-10 05:49N 35°54' W 005°51'412.4
2018-Jul-10 05:29N 35°54' W 005°56'812.7
2018-Jul-10 04:53N 35°54' W 006°06'12212.3
2018-Jul-09 18:58N 34°34' W 007°59'2012.2
2018-Jul-09 17:18N 34°20' W 008°17'412.1
2018-Jul-09 16:59N 34°17' W 008°21'812.7
2018-Jul-09 16:19N 34°12' W 008°28'26616.5
2018-Jul-09 00:11N 31°12' W 012°22'1217.0
2018-Jul-08 23:29N 31°04' W 012°32'817.1
2018-Jul-08 23:00N 30°59' W 012°39'917.2
2018-Jul-08 22:30N 30°53' W 012°46'4217.4
2018-Jul-08 20:05N 30°24' W 013°23'117.6
2018-Jul-08 20:00N 30°24' W 013°24'917.5
2018-Jul-08 19:30N 30°18' W 013°31'1217.5
2018-Jul-08 18:51N 30°10' W 013°41'917.4
2018-Jul-08 18:19N 30°04' W 013°49'617.5
2018-Jul-08 18:00N 29°60' W 013°54'917.6
2018-Jul-08 17:30N 29°54' W 014°01'917.7
2018-Jul-08 17:00N 29°48' W 014°09'917.9
2018-Jul-08 16:30N 29°42' W 014°16'917.9
2018-Jul-08 16:00N 29°36' W 014°24'917.6
2018-Jul-08 15:30N 29°30' W 014°31'917.5
2018-Jul-08 15:00N 29°24' W 014°39'917.7
2018-Jul-08 14:30N 29°18' W 014°46'917.5
2018-Jul-08 14:00N 29°12' W 014°54'917.5
2018-Jul-08 13:30N 29°06' W 015°01'917.5
2018-Jul-08 12:59N 28°60' W 015°09'917.6
2018-Jul-08 12:27N 28°54' W 015°16'1017.9
2018-Jul-08 11:53N 28°47' W 015°25'718.0
2018-Jul-08 11:30N 28°42' W 015°31'917.8
2018-Jul-08 11:00N 28°36' W 015°38'917.7
2018-Jul-08 10:30N 28°30' W 015°45'917.9
2018-Jul-08 10:00N 28°23' W 015°52'1017.7
2018-Jul-08 09:28N 28°16' W 015°59'817.6
2018-Jul-08 08:59N 28°09' W 016°05'1017.1
2018-Jul-08 08:26N 28°02' W 016°12'1617.0
2018-Jul-08 07:31N 27°50' W 016°23'716.5
2018-Jul-08 07:05N 27°44' W 016°28'316.4
2018-Jul-08 06:54N 27°42' W 016°30'3416.4
2018-Jul-08 04:50N 27°16' W 016°55'  

Dump ship's entire track history